Time;durP1;ratioP1;P1;durP2;ratioP2;P2;SDS_P1;SDS_P2;PMS_P1;PMS_P2;Temp;Humidity;BMP_temperature;BMP_pressure;BME280_temperature;BME280_humidity;BME280_pressure;Samples;Min_cycle;Max_cycle;Signal;HPM_P1;HPM_P2
2021/06/11 00:00:41;;;;;;;8.60;4.82;;;;;;;18.85;63.14;99183.81;5096128;28;20130;-76
2021/06/11 00:03:07;;;;;;;8.20;3.95;;;;;;;18.85;63.31;99186.50;5113780;28;20100;-76
2021/06/11 00:05:33;;;;;;;7.93;3.70;;;;;;;18.82;63.17;99190.41;5095638;28;20075;-75
2021/06/11 00:07:59;;;;;;;7.20;3.35;;;;;;;18.77;63.06;99197.38;5113914;28;20104;-75
2021/06/11 00:10:25;;;;;;;9.68;3.60;;;;;;;18.75;63.03;99202.13;5113998;28;20578;-77
2021/06/11 00:12:51;;;;;;;6.13;3.20;;;;;;;18.72;63.06;99206.03;5078897;28;20066;-77
2021/06/11 00:15:17;;;;;;;9.23;3.65;;;;;;;18.72;63.13;99226.88;5095665;28;20355;-76
2021/06/11 00:17:43;;;;;;;6.03;3.25;;;;;;;18.75;62.91;99224.63;5095731;28;20043;-76
2021/06/11 00:20:09;;;;;;;5.68;3.90;;;;;;;18.72;62.85;99213.31;5113825;28;20035;-77
2021/06/11 00:22:37;;;;;;;7.90;3.78;;;;;;;18.69;63.08;99207.22;5113587;28;20039;-75
2021/06/11 00:25:08;;;;;;;6.15;3.50;;;;;;;18.66;63.21;99196.75;5095793;28;20044;-76
2021/06/11 00:27:34;;;;;;;6.95;3.90;;;;;;;18.45;63.55;99185.69;5095498;28;20055;-76
2021/06/11 00:30:00;;;;;;;5.05;3.88;;;;;;;18.45;63.40;99178.41;5095337;28;20067;-76
2021/06/11 00:32:26;;;;;;;6.18;3.30;;;;;;;18.51;63.47;99193.13;5095784;28;20044;-77
2021/06/11 00:34:52;;;;;;;6.95;3.08;;;;;;;18.53;63.25;99207.28;5095219;28;20093;-75
2021/06/11 00:37:18;;;;;;;10.30;3.13;;;;;;;18.54;62.77;99195.47;5095156;28;20130;-75
2021/06/11 00:39:44;;;;;;;6.50;3.38;;;;;;;18.43;62.99;99198.56;5078150;28;20059;-76
2021/06/11 00:42:10;;;;;;;4.53;3.20;;;;;;;18.47;63.15;99194.50;5095092;28;20428;-75
2021/06/11 00:44:36;;;;;;;6.63;3.00;;;;;;;18.44;62.59;99205.66;5113141;28;20497;-76
2021/06/11 00:47:02;;;;;;;5.05;3.58;;;;;;;18.34;62.45;99211.28;5113321;28;20039;-78
2021/06/11 00:49:28;;;;;;;6.53;5.00;;;;;;;18.12;62.69;99207.47;5095213;28;20040;-75
2021/06/11 00:51:54;;;;;;;9.85;8.90;;;;;;;18.18;63.16;99212.19;5113014;28;20051;-77
2021/06/11 00:54:19;;;;;;;15.25;9.25;;;;;;;18.19;62.86;99211.16;5094929;28;20062;-76
2021/06/11 00:56:45;;;;;;;10.68;8.65;;;;;;;18.27;62.56;99217.56;5095224;28;20082;-75
2021/06/11 00:59:11;;;;;;;14.48;9.95;;;;;;;18.35;62.17;99234.59;5061431;28;20062;-76
2021/06/11 01:01:37;;;;;;;10.65;8.07;;;;;;;18.28;62.01;99227.38;5113523;28;20151;-75
2021/06/11 01:04:03;;;;;;;8.60;7.55;;;;;;;18.40;62.44;99231.41;5113070;28;20039;-77
2021/06/11 01:06:29;;;;;;;14.75;5.60;;;;;;;18.50;62.16;99237.41;5095296;28;20035;-75
2021/06/11 01:08:55;;;;;;;6.60;4.25;;;;;;;18.49;61.94;99222.22;5112925;28;20043;-76
2021/06/11 01:11:21;;;;;;;11.00;3.95;;;;;;;18.54;61.66;99244.19;5061603;28;20475;-76
2021/06/11 01:13:47;;;;;;;8.10;3.50;;;;;;;18.53;61.81;99241.66;5078025;28;20142;-75
2021/06/11 01:16:13;;;;;;;8.25;3.33;;;;;;;18.53;61.41;99252.47;5061080;28;20126;-76
2021/06/11 01:18:39;;;;;;;10.95;3.50;;;;;;;18.56;61.77;99250.25;5078312;28;20040;-76
2021/06/11 01:21:04;;;;;;;9.85;4.00;;;;;;;18.59;61.42;99251.78;5094807;28;20473;-76
2021/06/11 01:23:41;;;;;;;13.57;4.00;;;;;;;18.68;61.84;99246.13;5094627;28;20142;-76
2021/06/11 01:26:28;;;;;;;9.07;3.60;;;;;;;18.80;61.62;99249.31;5094911;28;20082;-76
2021/06/11 01:28:58;;;;;;;11.57;4.03;;;;;;;18.85;61.00;99235.25;5077878;28;20047;-76
2021/06/11 01:31:24;;;;;;;10.68;3.50;;;;;;;18.95;60.71;99235.00;5028822;28;20372;-77
2021/06/11 01:33:57;;;;;;;8.27;3.30;;;;;;;18.99;60.53;99247.16;5094878;28;20139;-77
2021/06/11 01:36:27;;;;;;;10.40;3.70;;;;;;;18.96;59.98;99253.81;5094650;28;20040;-76
2021/06/11 01:38:53;;;;;;;11.50;3.70;;;;;;;19.00;59.97;99263.25;5077682;28;20051;-73
2021/06/11 01:41:19;;;;;;;9.20;4.15;;;;;;;19.06;59.97;99265.25;5078081;28;20451;-76
2021/06/11 01:43:47;;;;;;;10.55;4.15;;;;;;;19.15;60.02;99264.19;5094482;28;20067;-76
2021/06/11 01:46:14;;;;;;;10.90;3.53;;;;;;;19.17;59.33;99258.56;5094171;28;20143;-76
2021/06/11 01:48:40;;;;;;;8.13;3.67;;;;;;;19.06;58.76;99259.81;5094571;28;20123;-76
2021/06/11 01:51:07;;;;;;;8.98;3.70;;;;;;;19.09;59.25;99262.19;5077230;28;20101;-76
2021/06/11 01:53:34;;;;;;;10.38;4.18;;;;;;;19.09;58.53;99258.63;5077586;28;20051;-75
2021/06/11 01:56:02;;;;;;;12.05;4.15;;;;;;;18.79;58.88;99263.03;5041206;28;20506;-76
2021/06/11 01:58:27;;;;;;;12.73;3.88;;;;;;;18.68;58.78;99267.78;5024954;28;20052;-75
2021/06/11 02:00:54;;;;;;;7.68;4.00;;;;;;;18.56;59.48;99271.91;5057739;28;20048;-75
2021/06/11 02:03:22;;;;;;;7.40;3.95;;;;;;;18.58;59.43;99275.31;5059354;28;20048;-76
2021/06/11 02:05:48;;;;;;;8.95;3.85;;;;;;;18.44;58.89;99278.75;5062097;28;20035;-77
2021/06/11 02:08:14;;;;;;;11.82;3.92;;;;;;;18.32;59.12;99277.44;5077930;28;20241;-76
2021/06/11 02:10:40;;;;;;;10.60;4.22;;;;;;;18.25;59.46;99281.84;5077687;28;20597;-76
2021/06/11 02:13:06;;;;;;;8.73;3.65;;;;;;;18.05;59.91;99293.03;5061444;28;20044;-76
2021/06/11 02:15:32;;;;;;;13.57;4.10;;;;;;;18.06;60.19;99294.75;5060869;28;20083;-75
2021/06/11 02:17:58;;;;;;;17.70;4.60;;;;;;;18.04;59.96;99296.75;5095436;28;20534;-75
2021/06/11 02:20:25;;;;;;;11.27;4.40;;;;;;;18.20;59.69;99304.88;5061126;28;20067;-77
2021/06/11 02:22:52;;;;;;;18.27;4.32;;;;;;;18.22;59.21;99307.38;5061163;28;20125;-77
2021/06/11 02:25:20;;;;;;;14.52;4.43;;;;;;;18.22;58.66;99311.94;5060893;28;20102;-76
2021/06/11 02:27:46;;;;;;;15.52;4.30;;;;;;;18.17;59.07;99307.06;5077822;28;20518;-76
2021/06/11 02:30:15;;;;;;;10.90;4.30;;;;;;;18.15;59.19;99309.94;5043843;28;20040;-78
2021/06/11 02:32:41;;;;;;;19.02;4.30;;;;;;;18.28;58.92;99309.41;5044437;28;20158;-77
2021/06/11 02:35:09;;;;;;;20.77;4.13;;;;;;;18.48;59.40;99311.72;5027693;28;20141;-78
2021/06/11 02:37:35;;;;;;;7.78;4.65;;;;;;;18.75;59.14;99311.28;5060504;28;20478;-77
2021/06/11 02:40:02;;;;;;;11.90;3.67;;;;;;;18.95;58.68;99311.69;5077545;28;20036;-77
2021/06/11 02:42:29;;;;;;;11.10;3.85;;;;;;;19.18;58.08;99317.16;5060842;28;20051;-76
2021/06/11 02:44:55;;;;;;;10.20;4.13;;;;;;;19.27;57.84;99316.09;5060834;28;20040;-75
2021/06/11 02:47:24;;;;;;;13.27;3.70;;;;;;;19.39;56.54;99319.22;5027374;28;20450;-75
2021/06/11 02:49:53;;;;;;;11.25;3.70;;;;;;;19.42;57.41;99310.75;5044336;28;20498;-78
2021/06/11 02:52:22;;;;;;;9.68;4.10;;;;;;;19.59;56.95;99315.00;5060770;28;20042;-76
2021/06/11 02:54:48;;;;;;;13.52;4.10;;;;;;;19.70;56.38;99315.63;5054400;28;20144;-75
2021/06/11 02:57:19;;;;;;;10.85;4.07;;;;;;;19.65;55.90;99313.47;5080694;28;20554;-76
2021/06/11 02:59:53;;;;;;;13.65;4.00;;;;;;;19.75;55.43;99314.09;5097260;28;20466;-76
2021/06/11 03:02:26;;;;;;;12.77;4.20;;;;;;;19.89;55.68;99320.56;5096807;28;20383;-75
2021/06/11 03:04:52;;;;;;;17.15;3.92;;;;;;;19.91;55.48;99307.66;5097286;28;20555;-75
2021/06/11 03:07:23;;;;;;;26.98;4.80;;;;;;;19.88;55.72;99313.44;5080295;28;20114;-76
2021/06/11 03:09:49;;;;;;;15.30;4.20;;;;;;;19.83;55.83;99305.03;5064639;28;20093;-75
2021/06/11 03:12:14;;;;;;;11.07;4.30;;;;;;;19.66;55.62;99320.59;5080243;28;20473;-76
2021/06/11 03:14:40;;;;;;;10.05;3.85;;;;;;;19.60;55.62;99315.88;5062655;28;20054;-76
2021/06/11 03:17:06;;;;;;;14.95;3.92;;;;;;;19.59;55.64;99311.44;5063089;28;20474;-76
2021/06/11 03:19:36;;;;;;;13.05;3.47;;;;;;;19.69;55.94;99313.97;5079751;28;20514;-76
2021/06/11 03:22:08;;;;;;;19.52;3.85;;;;;;;19.83;55.43;99321.31;5096926;28;20039;-76
2021/06/11 03:24:56;;;;;;;15.77;3.70;;;;;;;19.77;55.23;99322.03;5063081;28;20130;-76
2021/06/11 03:27:30;;;;;;;12.20;3.47;;;;;;;19.93;54.98;99324.59;5082062;28;20085;-76
2021/06/11 03:30:00;;;;;;;14.15;3.50;;;;;;;19.99;55.44;99314.88;5080218;28;20406;-74
2021/06/11 03:32:28;;;;;;;7.40;3.55;;;;;;;20.11;54.24;99313.41;5080533;28;20046;-75
2021/06/11 03:34:55;;;;;;;6.50;3.30;;;;;;;20.09;55.06;99310.88;5063365;28;20066;-75
2021/06/11 03:37:21;;;;;;;9.90;3.30;;;;;;;20.08;54.71;99320.06;5096277;28;20502;-76
2021/06/11 03:39:48;;;;;;;9.00;3.55;;;;;;;20.05;54.80;99325.84;5096316;28;20100;-76
2021/06/11 03:42:14;;;;;;;10.55;3.28;;;;;;;19.99;54.94;99326.56;5096057;28;20046;-76
2021/06/11 03:44:41;;;;;;;16.13;3.88;;;;;;;19.98;54.80;99332.19;5113833;28;20051;-76
2021/06/11 03:47:11;;;;;;;10.52;3.75;;;;;;;20.00;54.57;99333.69;5079411;28;20075;-75
2021/06/11 03:49:39;;;;;;;10.55;4.18;;;;;;;19.85;55.13;99346.38;5079370;28;20047;-75
2021/06/11 03:52:05;;;;;;;11.88;3.63;;;;;;;19.75;55.35;99356.63;5079171;28;20036;-75
2021/06/11 03:54:30;;;;;;;12.55;3.42;;;;;;;19.86;55.29;99364.34;5095743;28;20458;-75
2021/06/11 03:56:56;;;;;;;12.23;3.42;;;;;;;19.97;55.13;99361.22;5079452;28;20079;-76
2021/06/11 03:59:23;;;;;;;11.27;3.53;;;;;;;19.98;55.16;99362.88;5096062;28;20545;-75
2021/06/11 04:01:50;;;;;;;14.48;3.22;;;;;;;20.08;54.87;99362.59;5079579;28;20461;-77
2021/06/11 04:04:16;;;;;;;12.73;3.50;;;;;;;20.06;54.26;99362.81;5045698;28;20039;-74
2021/06/11 04:06:52;;;;;;;6.55;2.90;;;;;;;20.05;54.43;99368.44;5078921;28;20508;-75
2021/06/11 04:09:21;;;;;;;11.13;3.65;;;;;;;20.00;54.30;99371.66;5063287;28;20062;-76
2021/06/11 04:12:01;;;;;;;9.65;3.15;;;;;;;19.75;54.85;99378.34;5062282;28;20166;-76
2021/06/11 04:14:30;;;;;;;12.75;4.00;;;;;;;19.70;55.42;99386.16;5062724;28;20142;-75
2021/06/11 04:17:00;;;;;;;7.95;3.15;;;;;;;19.71;56.23;99388.69;5079379;28;20460;-76
2021/06/11 04:19:28;;;;;;;12.35;3.40;;;;;;;19.70;57.33;99391.56;5079289;28;20442;-76
2021/06/11 04:21:55;;;;;;;16.35;3.72;;;;;;;19.63;57.77;99397.75;5078935;28;20494;-74
2021/06/11 04:24:32;;;;;;;11.68;3.10;;;;;;;19.53;58.09;99397.09;5062024;28;20047;-74
2021/06/11 04:26:58;;;;;;;16.27;3.63;;;;;;;19.46;58.95;99387.13;5077921;28;20118;-75
2021/06/11 04:29:24;;;;;;;9.75;3.42;;;;;;;19.39;58.83;99387.00;5061988;28;20048;-76
2021/06/11 04:31:53;;;;;;;10.20;3.50;;;;;;;19.39;59.31;99390.53;5078451;28;20386;-76
2021/06/11 04:34:19;;;;;;;10.43;3.58;;;;;;;19.44;59.65;99391.88;5095434;28;20509;-77
2021/06/11 04:36:45;;;;;;;12.32;3.92;;;;;;;19.36;59.14;99398.19;5078775;28;20037;-76
2021/06/11 04:39:12;;;;;;;11.65;3.47;;;;;;;19.22;59.52;99393.50;5095268;28;20048;-75
2021/06/11 04:41:38;;;;;;;8.05;4.05;;;;;;;18.91;61.40;99394.34;5095334;28;20513;-75
2021/06/11 04:44:05;;;;;;;10.63;3.50;;;;;;;18.91;61.39;99397.03;5095274;28;20047;-76
2021/06/11 04:46:32;;;;;;;12.00;3.28;;;;;;;19.05;61.23;99399.03;5078600;28;20448;-76
2021/06/11 04:48:57;;;;;;;7.93;3.78;;;;;;;19.25;61.12;99393.16;5078576;28;20040;-75
2021/06/11 04:51:24;;;;;;;11.88;3.55;;;;;;;19.40;61.17;99392.22;5113335;28;20047;-77
2021/06/11 04:53:51;;;;;;;15.48;4.20;;;;;;;19.55;60.84;99395.03;5113195;28;20490;-76
2021/06/11 04:56:17;;;;;;;10.95;4.00;;;;;;;19.58;60.76;99400.09;5095643;28;20051;-76
2021/06/11 04:58:43;;;;;;;14.63;4.00;;;;;;;19.67;60.93;99405.50;5095056;28;20055;-77
2021/06/11 05:01:09;;;;;;;8.73;3.85;;;;;;;19.58;60.64;99410.94;5095248;28;20521;-75
2021/06/11 05:03:35;;;;;;;11.60;3.70;;;;;;;19.54;60.91;99412.31;5061716;28;20047;-77
2021/06/11 05:06:02;;;;;;;13.52;4.18;;;;;;;19.64;60.98;99410.25;5078245;28;20051;-76
2021/06/11 05:08:28;;;;;;;9.65;3.97;;;;;;;19.61;60.74;99404.31;5078552;28;20054;-75
2021/06/11 05:10:54;;;;;;;11.82;4.38;;;;;;;19.63;61.04;99407.72;5061526;28;20371;-75
2021/06/11 05:13:20;;;;;;;9.98;4.10;;;;;;;19.55;61.64;99400.44;5078082;28;20051;-76
2021/06/11 05:15:46;;;;;;;10.75;4.35;;;;;;;19.62;61.95;99404.16;5061180;28;20040;-76
2021/06/11 05:18:13;;;;;;;13.93;6.82;;;;;;;19.52;62.51;99399.97;5113408;28;20043;-75
2021/06/11 05:20:39;;;;;;;11.95;3.97;;;;;;;19.57;62.30;99403.84;5112809;28;20035;-76
2021/06/11 05:23:06;;;;;;;14.13;4.30;;;;;;;19.57;62.25;99401.13;5113136;28;20131;-76
2021/06/11 05:25:32;;;;;;;11.50;4.40;;;;;;;19.58;62.27;99402.81;5061566;28;20458;-76
2021/06/11 05:27:58;;;;;;;14.85;4.50;;;;;;;19.43;63.25;99404.59;5112690;28;20043;-75
2021/06/11 05:30:25;;;;;;;11.25;4.60;;;;;;;19.13;64.15;99406.28;5112990;28;20475;-75
2021/06/11 05:32:51;;;;;;;11.68;4.50;;;;;;;19.21;64.55;99413.50;5094670;28;20402;-74
2021/06/11 05:35:17;;;;;;;14.18;4.32;;;;;;;19.24;64.13;99408.59;5077982;28;20052;-75
2021/06/11 05:37:43;;;;;;;13.38;4.28;;;;;;;19.23;64.22;99397.94;5097148;28;20152;-75
2021/06/11 05:40:10;;;;;;;8.77;4.40;;;;;;;19.28;64.30;99403.66;5048271;28;20061;-75
2021/06/11 05:42:36;;;;;;;6.53;3.70;;;;;;;19.33;64.09;99404.84;5116764;28;20514;-77
2021/06/11 05:45:03;;;;;;;10.68;4.20;;;;;;;19.36;64.14;99403.59;5116753;28;20044;-76
2021/06/11 05:47:29;;;;;;;8.73;4.38;;;;;;;19.23;63.89;99400.66;5081923;28;20035;-76
2021/06/11 05:49:55;;;;;;;8.90;4.25;;;;;;;19.24;64.17;99410.47;5064996;28;20407;-78
2021/06/11 05:52:21;;;;;;;8.77;4.20;;;;;;;19.30;64.04;99407.06;5098592;28;20047;-79
2021/06/11 05:54:46;;;;;;;12.15;5.53;;;;;;;19.39;63.74;99400.56;5109474;27;20084;-76
2021/06/11 05:57:12;;;;;;;6.40;4.15;;;;;;;19.47;63.49;99408.63;5102169;28;20415;-76
2021/06/11 05:59:38;;;;;;;8.52;4.28;;;;;;;19.57;63.45;99411.97;5111327;28;20538;-77
2021/06/11 06:02:04;;;;;;;12.75;4.72;;;;;;;19.67;63.12;99419.03;5114455;28;20491;-79
2021/06/11 06:04:30;;;;;;;11.52;4.20;;;;;;;19.78;62.41;99414.09;5077984;28;20491;-80
2021/06/11 06:06:59;;;;;;;8.60;3.88;;;;;;;19.92;61.64;99427.88;5061727;28;20043;-81
2021/06/11 06:09:25;;;;;;;11.18;4.05;;;;;;;19.91;61.99;99421.59;5077470;28;20048;-79
2021/06/11 06:11:51;;;;;;;9.05;4.22;;;;;;;19.90;62.41;99425.34;5060993;28;20070;-76
2021/06/11 06:14:17;;;;;;;8.05;3.53;;;;;;;19.91;61.84;99428.91;5077962;28;20135;-77
2021/06/11 06:16:43;;;;;;;6.57;4.05;;;;;;;19.91;62.24;99424.31;5079972;28;20032;-76
2021/06/11 06:19:09;;;;;;;8.55;3.50;;;;;;;19.96;61.92;99430.03;5086745;28;20046;-77
2021/06/11 06:21:35;;;;;;;5.88;3.47;;;;;;;19.90;62.02;99430.78;5077726;28;20441;-75
2021/06/11 06:24:01;;;;;;;11.13;3.88;;;;;;;19.91;61.79;99427.03;5095861;28;20386;-77
2021/06/11 06:26:27;;;;;;;8.85;3.92;;;;;;;19.92;61.45;99431.44;5077549;28;20047;-76
2021/06/11 06:28:54;;;;;;;11.35;3.85;;;;;;;19.95;61.57;99428.34;5044382;28;20044;-78
2021/06/11 06:31:20;;;;;;;9.77;3.58;;;;;;;19.86;61.44;99429.44;5060905;28;20491;-80
2021/06/11 06:33:46;;;;;;;5.05;3.47;;;;;;;19.79;61.97;99434.75;5078009;28;20087;-77
2021/06/11 06:36:12;;;;;;;8.13;4.03;;;;;;;19.92;61.81;99434.13;5077765;28;20097;-79
2021/06/11 06:38:38;;;;;;;12.55;3.78;;;;;;;19.81;61.83;99421.00;5095249;28;20445;-77
2021/06/11 06:41:08;;;;;;;8.15;3.60;;;;;;;19.84;62.06;99426.06;5095091;28;20067;-79
2021/06/11 06:43:34;;;;;;;10.30;4.00;;;;;;;19.82;62.09;99445.25;5095396;28;20101;-77
2021/06/11 06:46:00;;;;;;;9.18;4.68;;;;;;;19.88;62.15;99439.09;5095482;28;20044;-79
2021/06/11 06:48:26;;;;;;;6.15;3.90;;;;;;;19.88;61.50;99439.09;5027032;28;20143;-76
2021/06/11 06:50:59;;;;;;;7.45;3.72;;;;;;;19.81;61.62;99450.81;5060447;28;20177;-77
2021/06/11 06:53:25;;;;;;;10.25;3.75;;;;;;;19.87;62.09;99452.84;5061687;28;20048;-75
2021/06/11 06:55:51;;;;;;;6.40;3.65;;;;;;;19.95;62.14;99460.06;5076860;28;20414;-76
2021/06/11 06:58:17;;;;;;;5.78;3.38;;;;;;;20.10;61.83;99464.53;5095084;28;20079;-76
2021/06/11 07:00:43;;;;;;;7.95;3.42;;;;;;;20.25;61.35;99463.75;5060243;28;20040;-77
2021/06/11 07:03:09;;;;;;;8.43;4.50;;;;;;;20.33;61.29;99460.97;5094929;28;20490;-78
2021/06/11 07:05:35;;;;;;;9.80;3.83;;;;;;;20.51;61.27;99469.66;5043797;28;20109;-78
2021/06/11 07:08:01;;;;;;;9.15;3.92;;;;;;;20.73;60.75;99464.38;5094831;28;20509;-78
2021/06/11 07:10:27;;;;;;;8.65;3.70;;;;;;;20.80;60.41;99468.03;5076022;28;20048;-77
2021/06/11 07:12:53;;;;;;;5.35;3.88;;;;;;;21.03;59.94;99466.06;5043001;28;20093;-78
2021/06/11 07:15:19;;;;;;;6.50;3.60;;;;;;;21.25;60.09;99468.88;5094138;28;20142;-77
2021/06/11 07:17:45;;;;;;;9.75;3.40;;;;;;;21.54;58.68;99468.88;5094446;28;20127;-78
2021/06/11 07:20:11;;;;;;;14.30;4.20;;;;;;;21.82;58.69;99473.59;5059706;28;20040;-79
2021/06/11 07:22:37;;;;;;;9.05;3.50;;;;;;;22.17;57.78;99469.19;5104916;28;20044;-76
2021/06/11 07:25:05;;;;;;;7.00;3.10;;;;;;;22.51;56.93;99468.44;5094037;28;20052;-78
2021/06/11 07:27:33;;;;;;;9.18;3.25;;;;;;;22.81;56.24;99472.84;5060371;28;20054;-76
2021/06/11 07:30:00;;;;;;;4.40;3.25;;;;;;;22.85;55.92;99472.25;5093476;28;20040;-80
2021/06/11 07:32:26;;;;;;;9.95;3.08;;;;;;;23.00;55.33;99472.19;5076050;28;20044;-74
2021/06/11 07:34:52;;;;;;;11.80;3.63;;;;;;;23.14;54.96;99470.38;5075978;28;20396;-77
2021/06/11 07:37:18;;;;;;;7.45;3.28;;;;;;;23.29;54.80;99476.56;5042204;28;20064;-77
2021/06/11 07:39:43;;;;;;;9.32;3.20;;;;;;;23.44;54.11;99481.88;5093739;28;20399;-77
2021/06/11 07:42:11;;;;;;;8.70;3.70;;;;;;;23.51;53.92;99480.84;5058734;28;20044;-77
2021/06/11 07:44:41;;;;;;;8.52;3.30;;;;;;;23.58;53.78;99483.59;5093518;28;20482;-77
2021/06/11 07:47:08;;;;;;;6.57;2.90;;;;;;;23.61;53.76;99482.34;5059429;28;20048;-76
2021/06/11 07:49:34;;;;;;;5.18;3.03;;;;;;;23.36;53.36;99482.06;5075339;28;20132;-78
2021/06/11 07:52:00;;;;;;;5.43;3.15;;;;;;;23.46;53.51;99479.78;5059637;28;20036;-78
2021/06/11 07:54:26;;;;;;;6.03;4.05;;;;;;;23.42;53.19;99471.16;5097751;28;20150;-76
2021/06/11 07:56:52;;;;;;;3.63;3.10;;;;;;;23.37;53.87;99470.94;5075486;28;20110;-78
2021/06/11 07:59:20;;;;;;;10.10;3.20;;;;;;;23.51;53.37;99455.47;5093692;28;20109;-78
2021/06/11 08:01:46;;;;;;;7.13;3.20;;;;;;;23.68;53.14;99466.88;5095884;28;20039;-78
2021/06/11 08:04:12;;;;;;;10.57;3.60;;;;;;;23.79;53.07;99469.03;5089070;28;20126;-77
2021/06/11 08:06:37;;;;;;;8.48;3.47;;;;;;;23.94;53.26;99458.78;5075180;28;20134;-77
2021/06/11 08:09:04;;;;;;;12.23;3.50;;;;;;;23.89;52.68;99460.44;5093537;28;20048;-76
2021/06/11 08:11:29;;;;;;;9.63;4.10;;;;;;;23.97;53.03;99450.16;5075281;28;20142;-75
2021/06/11 08:13:55;;;;;;;9.45;3.60;;;;;;;24.11;52.93;99442.00;5093565;28;20430;-77
2021/06/11 08:16:22;;;;;;;9.63;3.30;;;;;;;24.37;52.56;99442.03;5093485;28;20094;-76
2021/06/11 08:18:48;;;;;;;9.00;3.50;;;;;;;24.68;52.24;99435.13;5025807;28;20064;-77
2021/06/11 08:21:14;;;;;;;9.48;3.60;;;;;;;25.17;52.01;99433.78;5075078;28;20048;-75
2021/06/11 08:23:41;;;;;;;6.90;3.53;;;;;;;25.39;51.09;99432.44;5093466;28;20044;-77
2021/06/11 08:26:07;;;;;;;13.75;3.60;;;;;;;25.44;50.82;99429.88;5042570;28;20134;-77
2021/06/11 08:28:33;;;;;;;8.50;3.30;;;;;;;25.71;50.91;99427.00;5093502;28;20043;-77
2021/06/11 08:30:58;;;;;;;10.48;3.40;;;;;;;25.68;50.29;99430.19;5092945;28;20072;-75
2021/06/11 08:33:24;;;;;;;13.15;3.40;;;;;;;25.97;50.12;99428.78;5101802;28;20153;-73
2021/06/11 08:35:50;;;;;;;10.18;3.97;;;;;;;25.85;50.34;99417.69;5099883;28;20379;-76
2021/06/11 08:38:16;;;;;;;9.27;3.90;;;;;;;25.87;49.30;99423.78;5101863;28;20051;-77
2021/06/11 08:40:42;;;;;;;11.40;3.50;;;;;;;25.89;50.08;99418.94;5057656;28;20134;-75
2021/06/11 08:43:08;;;;;;;9.48;3.30;;;;;;;26.07;49.39;99428.31;5103646;28;20062;-76
2021/06/11 08:45:34;;;;;;;10.90;3.45;;;;;;;25.90;49.74;99439.78;5093609;28;20071;-76
2021/06/11 08:48:00;;;;;;;6.57;3.15;;;;;;;26.13;49.24;99449.31;5095779;28;20106;-75
2021/06/11 08:50:27;;;;;;;12.40;4.55;;;;;;;26.33;49.11;99447.31;5101695;28;20076;-77
2021/06/11 08:52:56;;;;;;;6.55;3.47;;;;;;;26.76;49.13;99438.31;5041690;28;20044;-75
2021/06/11 08:55:22;;;;;;;14.35;3.28;;;;;;;27.13;47.29;99437.53;5074463;28;20055;-75
2021/06/11 08:57:49;;;;;;;6.90;3.10;;;;;;;26.84;44.44;99440.75;5079699;28;20040;-74
2021/06/11 09:00:15;;;;;;;13.02;3.00;;;;;;;26.74;43.93;99447.81;5103952;28;20044;-76
2021/06/11 09:03:20;;;;;;;15.38;3.15;;;;;;;26.70;44.66;99436.44;5113160;28;20043;-76
2021/06/11 09:06:05;;;;;;;9.85;3.42;;;;;;;26.48;44.22;99441.53;5113233;28;20051;-74
2021/06/11 09:08:32;;;;;;;12.05;3.33;;;;;;;26.40;44.13;99434.38;5078632;28;20087;-76
2021/06/11 09:11:18;;;;;;;8.43;3.40;;;;;;;26.33;44.45;99439.06;5077938;28;20132;-76
2021/06/11 09:13:45;;;;;;;6.10;3.10;;;;;;;26.30;44.18;99450.47;5061504;28;20036;-74
2021/06/11 09:16:14;;;;;;;12.05;3.63;;;;;;;25.90;44.70;99439.78;5078021;28;20079;-74
2021/06/11 09:18:56;;;;;;;8.02;3.65;;;;;;;25.86;44.59;99437.72;5077769;28;20067;-76
2021/06/11 09:21:33;;;;;;;21.30;3.88;;;;;;;26.01;44.92;99434.66;5061435;28;20050;-76
2021/06/11 09:27:02;;;;;;;8.10;3.15;;;;;;;26.00;44.57;99449.44;5078041;28;20097;-75
2021/06/11 09:29:29;;;;;;;9.07;3.35;;;;;;;26.09;44.63;99442.63;5094867;28;20481;-75
2021/06/11 09:32:18;;;;;;;9.45;3.28;;;;;;;26.00;44.79;99443.94;5094701;28;20040;-76
2021/06/11 09:34:45;;;;;;;12.35;3.22;;;;;;;26.05;44.94;99441.38;5112958;28;20138;-76
2021/06/11 09:37:13;;;;;;;5.95;3.15;;;;;;;26.04;44.21;99443.28;5112868;28;20132;-76
2021/06/11 09:40:10;;;;;;;8.73;3.30;;;;;;;26.08;43.81;99449.16;5094853;28;20067;-76
2021/06/11 09:42:40;;;;;;;10.77;3.43;;;;;;;25.84;44.47;99440.69;5096365;28;20281;-75
2021/06/11 09:45:11;;;;;;;8.40;3.13;;;;;;;25.91;44.78;99452.44;5061548;28;20051;-75
2021/06/11 09:47:41;;;;;;;8.88;3.15;;;;;;;26.03;44.41;99443.53;5094828;28;20157;-75
2021/06/11 09:50:08;;;;;;;8.63;2.83;;;;;;;26.47;44.09;99444.47;5078593;28;20100;-77
2021/06/11 09:52:49;;;;;;;10.05;3.20;;;;;;;26.85;43.67;99430.59;5094501;28;20482;-76
2021/06/11 09:55:45;;;;;;;7.00;3.00;;;;;;;27.68;42.52;99437.47;5079407;28;20066;-75
2021/06/11 09:58:12;;;;;;;9.00;3.22;;;;;;;28.37;41.50;99438.00;5084509;28;20058;-76
2021/06/11 10:00:49;;;;;;;9.05;3.10;;;;;;;28.79;40.19;99436.84;5094646;28;20047;-76
2021/06/11 10:03:35;;;;;;;7.07;2.92;;;;;;;29.22;38.83;99440.31;5079008;28;20043;-75
2021/06/11 10:06:03;;;;;;;9.48;3.03;;;;;;;29.41;38.09;99443.75;5095138;28;20142;-75
2021/06/11 10:08:29;;;;;;;10.55;2.95;;;;;;;29.54;37.43;99443.47;5094783;28;20101;-77
2021/06/11 10:11:02;;;;;;;12.43;3.03;;;;;;;30.05;36.36;99450.00;5112533;28;20142;-76
2021/06/11 10:13:28;;;;;;;7.07;2.83;;;;;;;30.19;35.65;99442.28;5044558;28;20121;-76
2021/06/11 10:15:55;;;;;;;13.98;2.90;;;;;;;30.46;35.14;99439.72;5112831;28;20410;-75
2021/06/11 10:18:21;;;;;;;7.35;2.45;;;;;;;30.13;35.43;99443.28;5077584;28;20402;-74
2021/06/11 10:20:47;;;;;;;5.72;2.50;;;;;;;30.03;35.88;99452.19;5094095;28;20048;-76
2021/06/11 10:23:16;;;;;;;14.18;2.75;;;;;;;30.33;35.03;99437.31;5094108;28;20043;-74
2021/06/11 10:25:44;;;;;;;10.40;2.83;;;;;;;30.47;34.33;99447.75;5115817;28;20055;-75
2021/06/11 10:28:14;;;;;;;;;;;;;;;30.67;34.42;99446.41;5116221;28;20055;-77
2021/06/11 10:30:40;;;;;;;9.65;2.30;;;;;;;30.39;33.09;99431.63;5115614;28;20309;-74
2021/06/11 10:33:06;;;;;;;10.52;2.65;;;;;;;29.98;34.40;99430.88;5115766;28;20048;-74
2021/06/11 10:35:46;;;;;;;8.57;2.78;;;;;;;29.73;34.33;99431.22;5115798;28;20547;-79
2021/06/11 10:38:33;;;;;;;6.93;2.63;;;;;;;30.10;34.90;99438.25;5064716;28;20063;-85
2021/06/11 10:41:02;;;;;;;9.98;2.60;;;;;;;31.03;33.93;99431.28;5097787;28;20506;-82
2021/06/11 10:43:29;;;;;;;8.90;2.85;;;;;;;31.44;33.33;99440.09;5115722;28;20518;-82
2021/06/11 10:45:58;;;;;;;5.40;2.30;;;;;;;30.91;33.05;99438.81;5097714;28;20142;-83
2021/06/11 10:48:25;;;;;;;11.40;2.53;;;;;;;31.00;33.29;99439.22;5064060;28;20066;-81
2021/06/11 10:50:51;;;;;;;9.48;2.40;;;;;;;31.52;32.81;99431.38;5054598;28;20056;-82
2021/06/11 10:53:29;;;;;;;7.55;2.03;;;;;;;31.89;32.36;99419.66;5065744;28;20491;-79
2021/06/11 10:56:06;;;;;;;6.78;2.55;;;;;;;32.92;31.42;99422.22;5053647;28;20071;-80
2021/06/11 10:58:42;;;;;;;6.85;2.60;;;;;;;33.82;29.96;99422.09;5093996;28;20101;-80
2021/06/11 11:01:21;;;;;;;8.73;2.53;;;;;;;34.41;28.69;99427.19;5078467;28;20132;-80
2021/06/11 11:03:47;;;;;;;6.00;2.45;;;;;;;34.55;28.69;99420.00;5093640;28;20407;-86
2021/06/11 11:06:34;;;;;;;8.02;2.42;;;;;;;34.01;28.08;99434.38;5060490;28;20067;-87
2021/06/11 11:09:03;;;;;;;7.28;2.13;;;;;;;32.69;29.31;99442.81;5099509;28;20043;-89
2021/06/11 11:11:34;;;;;;;10.70;2.40;;;;;;;31.60;30.99;99427.34;5076758;28;20205;-82
2021/06/11 11:14:00;;;;;;;9.93;2.42;;;;;;;30.73;32.04;99432.47;5093703;28;20044;-85
2021/06/11 11:16:27;;;;;;;8.20;2.55;;;;;;;29.82;34.37;99437.16;5076997;28;20129;-86
2021/06/11 11:18:54;;;;;;;7.50;2.63;;;;;;;29.90;34.03;99425.78;5077819;28;20153;-85
2021/06/11 11:21:43;;;;;;;10.02;2.80;;;;;;;29.94;34.36;99431.59;5094847;28;20387;-88
2021/06/11 11:24:12;;;;;;;11.40;2.75;;;;;;;30.09;34.16;99429.16;5093922;28;20138;-86
2021/06/11 11:26:46;;;;;;;7.40;2.60;;;;;;;31.07;33.36;99437.94;5060867;28;20403;-86
2021/06/11 11:29:13;;;;;;;7.18;2.45;;;;;;;32.25;31.77;99431.91;5077104;28;20553;-85
2021/06/11 11:31:39;;;;;;;8.68;2.22;;;;;;;32.59;31.87;99424.19;5077346;28;20101;-86
2021/06/11 11:34:05;;;;;;;6.53;2.47;;;;;;;33.01;30.81;99426.16;5094262;28;20035;-87
2021/06/11 11:36:33;;;;;;;10.15;2.65;;;;;;;32.92;30.42;99427.75;5095464;28;20032;-86